sensor_id;sensor_type;location;lat;lon;timestamp;P1;durP1;ratioP1;P2;durP2;ratioP2
25111;SDS011;13092;51.996;4.458;2022-11-04T00:01:48;31.90;;;29.67;;
25111;SDS011;13092;51.996;4.458;2022-11-04T00:04:17;31.13;;;28.92;;
25111;SDS011;13092;51.996;4.458;2022-11-04T00:06:48;31.08;;;28.85;;
25111;SDS011;13092;51.996;4.458;2022-11-04T00:09:17;30.50;;;28.38;;
25111;SDS011;13092;51.996;4.458;2022-11-04T00:11:46;31.45;;;29.02;;
25111;SDS011;13092;51.996;4.458;2022-11-04T00:14:33;31.60;;;29.20;;
25111;SDS011;13092;51.996;4.458;2022-11-04T00:17:01;31.75;;;29.25;;
25111;SDS011;13092;51.996;4.458;2022-11-04T00:19:45;31.45;;;29.20;;
25111;SDS011;13092;51.996;4.458;2022-11-04T00:22:32;31.17;;;28.83;;
25111;SDS011;13092;51.996;4.458;2022-11-04T00:25:18;31.42;;;29.17;;
25111;SDS011;13092;51.996;4.458;2022-11-04T00:28:04;31.35;;;29.05;;
25111;SDS011;13092;51.996;4.458;2022-11-04T00:30:53;31.40;;;29.00;;
25111;SDS011;13092;51.996;4.458;2022-11-04T00:33:46;30.48;;;28.17;;
25111;SDS011;13092;51.996;4.458;2022-11-04T00:36:14;32.03;;;29.48;;
25111;SDS011;13092;51.996;4.458;2022-11-04T00:38:44;30.70;;;28.50;;
25111;SDS011;13092;51.996;4.458;2022-11-04T00:41:12;30.77;;;28.48;;
25111;SDS011;13092;51.996;4.458;2022-11-04T00:43:54;31.27;;;28.88;;
25111;SDS011;13092;51.996;4.458;2022-11-04T00:46:23;30.75;;;28.42;;
25111;SDS011;13092;51.996;4.458;2022-11-04T00:48:51;32.15;;;29.85;;
25111;SDS011;13092;51.996;4.458;2022-11-04T00:51:19;31.13;;;28.90;;
25111;SDS011;13092;51.996;4.458;2022-11-04T00:53:49;31.33;;;28.92;;
25111;SDS011;13092;51.996;4.458;2022-11-04T00:56:17;33.03;;;30.45;;
25111;SDS011;13092;51.996;4.458;2022-11-04T00:58:45;33.50;;;30.55;;
25111;SDS011;13092;51.996;4.458;2022-11-04T01:01:15;32.58;;;30.23;;
25111;SDS011;13092;51.996;4.458;2022-11-04T01:03:44;32.72;;;30.40;;
25111;SDS011;13092;51.996;4.458;2022-11-04T01:06:13;32.38;;;30.02;;
25111;SDS011;13092;51.996;4.458;2022-11-04T01:08:42;33.10;;;30.65;;
25111;SDS011;13092;51.996;4.458;2022-11-04T01:11:11;32.78;;;30.40;;
25111;SDS011;13092;51.996;4.458;2022-11-04T01:13:40;34.08;;;31.42;;
25111;SDS011;13092;51.996;4.458;2022-11-04T01:16:09;31.77;;;29.65;;
25111;SDS011;13092;51.996;4.458;2022-11-04T01:18:38;32.28;;;30.08;;
25111;SDS011;13092;51.996;4.458;2022-11-04T01:21:07;32.40;;;30.20;;
25111;SDS011;13092;51.996;4.458;2022-11-04T01:23:38;32.38;;;30.27;;
25111;SDS011;13092;51.996;4.458;2022-11-04T01:26:07;33.90;;;31.13;;
25111;SDS011;13092;51.996;4.458;2022-11-04T01:28:40;32.90;;;30.55;;
25111;SDS011;13092;51.996;4.458;2022-11-04T01:31:08;32.53;;;30.33;;
25111;SDS011;13092;51.996;4.458;2022-11-04T01:33:37;33.47;;;31.27;;
25111;SDS011;13092;51.996;4.458;2022-11-04T01:36:06;32.70;;;30.52;;
25111;SDS011;13092;51.996;4.458;2022-11-04T01:38:38;33.88;;;31.58;;
25111;SDS011;13092;51.996;4.458;2022-11-04T01:41:10;33.58;;;31.40;;
25111;SDS011;13092;51.996;4.458;2022-11-04T01:43:47;33.25;;;31.08;;
25111;SDS011;13092;51.996;4.458;2022-11-04T01:46:20;34.03;;;31.65;;
25111;SDS011;13092;51.996;4.458;2022-11-04T01:48:57;33.33;;;31.02;;
25111;SDS011;13092;51.996;4.458;2022-11-04T01:51:28;33.03;;;30.90;;
25111;SDS011;13092;51.996;4.458;2022-11-04T01:54:01;33.03;;;30.80;;
25111;SDS011;13092;51.996;4.458;2022-11-04T01:56:32;33.90;;;31.50;;
25111;SDS011;13092;51.996;4.458;2022-11-04T01:59:04;33.83;;;31.42;;
25111;SDS011;13092;51.996;4.458;2022-11-04T02:01:36;33.70;;;31.40;;
25111;SDS011;13092;51.996;4.458;2022-11-04T02:04:04;33.33;;;31.02;;
25111;SDS011;13092;51.996;4.458;2022-11-04T02:06:50;33.55;;;31.35;;
25111;SDS011;13092;51.996;4.458;2022-11-04T02:09:20;33.83;;;31.25;;
25111;SDS011;13092;51.996;4.458;2022-11-04T02:11:49;32.97;;;30.77;;
25111;SDS011;13092;51.996;4.458;2022-11-04T02:14:36;33.90;;;31.30;;
25111;SDS011;13092;51.996;4.458;2022-11-04T02:17:10;33.13;;;30.80;;
25111;SDS011;13092;51.996;4.458;2022-11-04T02:19:56;33.55;;;31.00;;
25111;SDS011;13092;51.996;4.458;2022-11-04T02:26:04;33.13;;;30.92;;
25111;SDS011;13092;51.996;4.458;2022-11-04T02:29:06;34.83;;;32.42;;
25111;SDS011;13092;51.996;4.458;2022-11-04T02:31:42;34.60;;;32.08;;
25111;SDS011;13092;51.996;4.458;2022-11-04T02:34:18;34.40;;;32.10;;
25111;SDS011;13092;51.996;4.458;2022-11-04T02:36:54;36.40;;;33.90;;
25111;SDS011;13092;51.996;4.458;2022-11-04T02:39:31;36.05;;;33.35;;
25111;SDS011;13092;51.996;4.458;2022-11-04T02:42:08;36.83;;;34.33;;
25111;SDS011;13092;51.996;4.458;2022-11-04T02:44:43;36.47;;;33.88;;
25111;SDS011;13092;51.996;4.458;2022-11-04T02:47:16;36.88;;;34.17;;
25111;SDS011;13092;51.996;4.458;2022-11-04T02:49:49;36.05;;;33.45;;
25111;SDS011;13092;51.996;4.458;2022-11-04T02:52:22;37.65;;;34.78;;
25111;SDS011;13092;51.996;4.458;2022-11-04T02:54:56;36.88;;;34.35;;
25111;SDS011;13092;51.996;4.458;2022-11-04T02:57:28;35.50;;;33.15;;
25111;SDS011;13092;51.996;4.458;2022-11-04T03:00:00;36.83;;;34.13;;
25111;SDS011;13092;51.996;4.458;2022-11-04T03:02:32;37.45;;;34.83;;
25111;SDS011;13092;51.996;4.458;2022-11-04T03:05:04;36.65;;;34.05;;
25111;SDS011;13092;51.996;4.458;2022-11-04T03:07:36;37.90;;;34.97;;
25111;SDS011;13092;51.996;4.458;2022-11-04T03:10:08;37.55;;;34.60;;
25111;SDS011;13092;51.996;4.458;2022-11-04T03:12:41;37.72;;;35.10;;
25111;SDS011;13092;51.996;4.458;2022-11-04T03:15:16;39.50;;;36.33;;
25111;SDS011;13092;51.996;4.458;2022-11-04T03:17:48;37.50;;;34.55;;
25111;SDS011;13092;51.996;4.458;2022-11-04T03:20:22;39.42;;;36.42;;
25111;SDS011;13092;51.996;4.458;2022-11-04T03:22:54;39.78;;;36.55;;
25111;SDS011;13092;51.996;4.458;2022-11-04T03:25:25;40.47;;;37.35;;
25111;SDS011;13092;51.996;4.458;2022-11-04T03:27:59;41.33;;;38.03;;
25111;SDS011;13092;51.996;4.458;2022-11-04T03:30:35;41.88;;;38.72;;
25111;SDS011;13092;51.996;4.458;2022-11-04T03:33:07;41.78;;;38.42;;
25111;SDS011;13092;51.996;4.458;2022-11-04T03:35:42;41.72;;;38.25;;
25111;SDS011;13092;51.996;4.458;2022-11-04T03:38:10;40.55;;;37.53;;
25111;SDS011;13092;51.996;4.458;2022-11-04T03:40:38;41.97;;;38.38;;
25111;SDS011;13092;51.996;4.458;2022-11-04T03:43:08;40.75;;;37.35;;
25111;SDS011;13092;51.996;4.458;2022-11-04T03:45:40;41.22;;;37.70;;
25111;SDS011;13092;51.996;4.458;2022-11-04T03:48:10;40.80;;;37.70;;
25111;SDS011;13092;51.996;4.458;2022-11-04T03:50:40;39.97;;;36.80;;
25111;SDS011;13092;51.996;4.458;2022-11-04T03:53:09;42.67;;;39.13;;
25111;SDS011;13092;51.996;4.458;2022-11-04T03:55:43;41.50;;;37.90;;
25111;SDS011;13092;51.996;4.458;2022-11-04T03:58:21;42.47;;;38.75;;
25111;SDS011;13092;51.996;4.458;2022-11-04T04:01:02;41.97;;;38.63;;
25111;SDS011;13092;51.996;4.458;2022-11-04T04:03:41;42.13;;;38.20;;
25111;SDS011;13092;51.996;4.458;2022-11-04T04:06:17;41.40;;;37.85;;
25111;SDS011;13092;51.996;4.458;2022-11-04T04:08:48;40.08;;;36.75;;
25111;SDS011;13092;51.996;4.458;2022-11-04T04:11:20;41.40;;;38.00;;
25111;SDS011;13092;51.996;4.458;2022-11-04T04:14:00;41.30;;;38.00;;
25111;SDS011;13092;51.996;4.458;2022-11-04T04:16:35;40.35;;;36.70;;
25111;SDS011;13092;51.996;4.458;2022-11-04T04:19:06;38.75;;;35.47;;
25111;SDS011;13092;51.996;4.458;2022-11-04T04:21:39;38.80;;;35.80;;
25111;SDS011;13092;51.996;4.458;2022-11-04T04:24:11;39.70;;;36.65;;
25111;SDS011;13092;51.996;4.458;2022-11-04T04:27:00;39.35;;;36.10;;
25111;SDS011;13092;51.996;4.458;2022-11-04T04:29:46;38.65;;;35.50;;
25111;SDS011;13092;51.996;4.458;2022-11-04T04:32:18;40.33;;;36.72;;
25111;SDS011;13092;51.996;4.458;2022-11-04T04:34:48;38.78;;;35.60;;
25111;SDS011;13092;51.996;4.458;2022-11-04T04:37:39;40.38;;;36.80;;
25111;SDS011;13092;51.996;4.458;2022-11-04T04:40:08;38.90;;;35.75;;
25111;SDS011;13092;51.996;4.458;2022-11-04T04:42:57;38.85;;;35.75;;
25111;SDS011;13092;51.996;4.458;2022-11-04T04:45:43;38.38;;;35.05;;
25111;SDS011;13092;51.996;4.458;2022-11-04T04:48:18;37.47;;;34.50;;
25111;SDS011;13092;51.996;4.458;2022-11-04T04:50:47;38.33;;;35.00;;
25111;SDS011;13092;51.996;4.458;2022-11-04T04:53:22;37.75;;;34.70;;
25111;SDS011;13092;51.996;4.458;2022-11-04T04:55:50;38.15;;;34.75;;
25111;SDS011;13092;51.996;4.458;2022-11-04T04:58:18;36.20;;;33.55;;
25111;SDS011;13092;51.996;4.458;2022-11-04T05:00:45;37.55;;;34.85;;
25111;SDS011;13092;51.996;4.458;2022-11-04T05:03:13;35.97;;;33.08;;
25111;SDS011;13092;51.996;4.458;2022-11-04T05:05:43;36.42;;;33.47;;
25111;SDS011;13092;51.996;4.458;2022-11-04T05:08:11;35.97;;;33.25;;
25111;SDS011;13092;51.996;4.458;2022-11-04T05:10:39;36.00;;;33.25;;
25111;SDS011;13092;51.996;4.458;2022-11-04T05:13:08;36.80;;;34.00;;
25111;SDS011;13092;51.996;4.458;2022-11-04T05:15:55;36.80;;;33.90;;
25111;SDS011;13092;51.996;4.458;2022-11-04T05:18:23;37.60;;;34.45;;
25111;SDS011;13092;51.996;4.458;2022-11-04T05:20:54;36.72;;;34.05;;
25111;SDS011;13092;51.996;4.458;2022-11-04T05:23:22;36.63;;;33.83;;
25111;SDS011;13092;51.996;4.458;2022-11-04T05:25:50;35.78;;;33.10;;
25111;SDS011;13092;51.996;4.458;2022-11-04T05:28:21;37.47;;;34.35;;
25111;SDS011;13092;51.996;4.458;2022-11-04T05:30:49;36.45;;;33.45;;
25111;SDS011;13092;51.996;4.458;2022-11-04T05:33:17;36.22;;;33.33;;
25111;SDS011;13092;51.996;4.458;2022-11-04T05:35:45;35.15;;;32.42;;
25111;SDS011;13092;51.996;4.458;2022-11-04T05:38:14;34.75;;;32.20;;
25111;SDS011;13092;51.996;4.458;2022-11-04T05:40:42;36.28;;;33.30;;
25111;SDS011;13092;51.996;4.458;2022-11-04T05:43:10;35.72;;;32.92;;
25111;SDS011;13092;51.996;4.458;2022-11-04T05:45:38;37.60;;;34.22;;
25111;SDS011;13092;51.996;4.458;2022-11-04T05:48:09;35.88;;;32.88;;
25111;SDS011;13092;51.996;4.458;2022-11-04T05:50:46;36.92;;;33.65;;
25111;SDS011;13092;51.996;4.458;2022-11-04T05:53:16;34.08;;;31.38;;
25111;SDS011;13092;51.996;4.458;2022-11-04T05:55:45;34.85;;;32.05;;
25111;SDS011;13092;51.996;4.458;2022-11-04T05:58:13;34.03;;;31.02;;
25111;SDS011;13092;51.996;4.458;2022-11-04T06:00:42;34.67;;;31.83;;
25111;SDS011;13092;51.996;4.458;2022-11-04T06:03:11;34.80;;;31.90;;
25111;SDS011;13092;51.996;4.458;2022-11-04T06:05:41;34.60;;;31.63;;
25111;SDS011;13092;51.996;4.458;2022-11-04T06:08:12;33.85;;;31.25;;
25111;SDS011;13092;51.996;4.458;2022-11-04T06:10:43;33.80;;;30.92;;
25111;SDS011;13092;51.996;4.458;2022-11-04T06:13:11;34.40;;;31.40;;
25111;SDS011;13092;51.996;4.458;2022-11-04T06:15:39;33.85;;;30.80;;
25111;SDS011;13092;51.996;4.458;2022-11-04T06:18:07;32.92;;;30.08;;
25111;SDS011;13092;51.996;4.458;2022-11-04T06:20:36;34.50;;;31.48;;
25111;SDS011;13092;51.996;4.458;2022-11-04T06:23:04;33.53;;;30.73;;
25111;SDS011;13092;51.996;4.458;2022-11-04T06:25:32;33.65;;;30.83;;
25111;SDS011;13092;51.996;4.458;2022-11-04T06:28:02;33.90;;;31.10;;
25111;SDS011;13092;51.996;4.458;2022-11-04T06:30:30;33.63;;;30.70;;
25111;SDS011;13092;51.996;4.458;2022-11-04T06:32:58;33.05;;;30.35;;
25111;SDS011;13092;51.996;4.458;2022-11-04T06:35:26;33.83;;;30.67;;
25111;SDS011;13092;51.996;4.458;2022-11-04T06:37:54;33.65;;;30.92;;
25111;SDS011;13092;51.996;4.458;2022-11-04T06:40:23;33.17;;;30.55;;
25111;SDS011;13092;51.996;4.458;2022-11-04T06:42:51;33.13;;;30.45;;
25111;SDS011;13092;51.996;4.458;2022-11-04T06:45:21;35.08;;;31.73;;
25111;SDS011;13092;51.996;4.458;2022-11-04T06:47:49;34.25;;;30.88;;
25111;SDS011;13092;51.996;4.458;2022-11-04T06:50:17;33.03;;;29.98;;
25111;SDS011;13092;51.996;4.458;2022-11-04T06:52:45;30.15;;;27.88;;
25111;SDS011;13092;51.996;4.458;2022-11-04T06:55:13;30.73;;;28.52;;
25111;SDS011;13092;51.996;4.458;2022-11-04T06:57:41;32.17;;;29.45;;
25111;SDS011;13092;51.996;4.458;2022-11-04T07:00:10;32.88;;;30.35;;
25111;SDS011;13092;51.996;4.458;2022-11-04T07:02:40;31.70;;;29.10;;
25111;SDS011;13092;51.996;4.458;2022-11-04T07:05:09;32.72;;;30.05;;
25111;SDS011;13092;51.996;4.458;2022-11-04T07:07:37;31.77;;;29.25;;
25111;SDS011;13092;51.996;4.458;2022-11-04T07:10:05;32.35;;;29.75;;
25111;SDS011;13092;51.996;4.458;2022-11-04T07:12:34;32.30;;;29.67;;
25111;SDS011;13092;51.996;4.458;2022-11-04T07:15:02;32.65;;;29.95;;
25111;SDS011;13092;51.996;4.458;2022-11-04T07:17:31;32.72;;;29.92;;
25111;SDS011;13092;51.996;4.458;2022-11-04T07:20:01;32.47;;;29.90;;
25111;SDS011;13092;51.996;4.458;2022-11-04T07:22:30;31.52;;;28.98;;
25111;SDS011;13092;51.996;4.458;2022-11-04T07:24:59;30.35;;;27.92;;
25111;SDS011;13092;51.996;4.458;2022-11-04T07:27:27;31.42;;;28.85;;
25111;SDS011;13092;51.996;4.458;2022-11-04T07:29:56;31.63;;;28.85;;
25111;SDS011;13092;51.996;4.458;2022-11-04T07:32:24;32.08;;;29.50;;
25111;SDS011;13092;51.996;4.458;2022-11-04T07:34:52;31.60;;;28.90;;
25111;SDS011;13092;51.996;4.458;2022-11-04T07:37:21;31.00;;;28.58;;
25111;SDS011;13092;51.996;4.458;2022-11-04T07:39:49;32.30;;;29.60;;
25111;SDS011;13092;51.996;4.458;2022-11-04T07:42:22;31.45;;;28.67;;
25111;SDS011;13092;51.996;4.458;2022-11-04T07:44:50;30.85;;;28.45;;
25111;SDS011;13092;51.996;4.458;2022-11-04T07:47:18;32.30;;;29.65;;
25111;SDS011;13092;51.996;4.458;2022-11-04T07:49:50;31.70;;;29.05;;
25111;SDS011;13092;51.996;4.458;2022-11-04T07:52:18;31.58;;;29.15;;
25111;SDS011;13092;51.996;4.458;2022-11-04T07:54:48;31.13;;;28.63;;
25111;SDS011;13092;51.996;4.458;2022-11-04T07:57:16;31.92;;;29.33;;
25111;SDS011;13092;51.996;4.458;2022-11-04T07:59:45;31.08;;;28.60;;
25111;SDS011;13092;51.996;4.458;2022-11-04T08:02:13;32.53;;;29.73;;
25111;SDS011;13092;51.996;4.458;2022-11-04T08:04:47;31.20;;;28.67;;
25111;SDS011;13092;51.996;4.458;2022-11-04T08:07:16;32.00;;;29.40;;
25111;SDS011;13092;51.996;4.458;2022-11-04T08:09:44;32.20;;;29.30;;
25111;SDS011;13092;51.996;4.458;2022-11-04T08:12:13;32.05;;;29.35;;
25111;SDS011;13092;51.996;4.458;2022-11-04T08:14:41;32.33;;;29.63;;
25111;SDS011;13092;51.996;4.458;2022-11-04T08:17:10;32.20;;;29.70;;
25111;SDS011;13092;51.996;4.458;2022-11-04T08:19:38;32.80;;;30.25;;
25111;SDS011;13092;51.996;4.458;2022-11-04T08:22:06;32.05;;;29.50;;
25111;SDS011;13092;51.996;4.458;2022-11-04T08:24:34;32.35;;;29.65;;
25111;SDS011;13092;51.996;4.458;2022-11-04T08:27:03;33.53;;;30.65;;
25111;SDS011;13092;51.996;4.458;2022-11-04T08:29:34;34.03;;;31.08;;
25111;SDS011;13092;51.996;4.458;2022-11-04T08:32:02;34.30;;;31.35;;
25111;SDS011;13092;51.996;4.458;2022-11-04T08:34:31;33.50;;;30.77;;
25111;SDS011;13092;51.996;4.458;2022-11-04T08:36:59;34.47;;;31.48;;
25111;SDS011;13092;51.996;4.458;2022-11-04T08:39:29;33.35;;;30.55;;
25111;SDS011;13092;51.996;4.458;2022-11-04T08:42:00;33.90;;;31.08;;
25111;SDS011;13092;51.996;4.458;2022-11-04T08:44:30;34.72;;;31.58;;
25111;SDS011;13092;51.996;4.458;2022-11-04T08:47:00;33.35;;;30.48;;
25111;SDS011;13092;51.996;4.458;2022-11-04T08:49:31;35.22;;;32.28;;
25111;SDS011;13092;51.996;4.458;2022-11-04T08:52:03;35.55;;;32.47;;
25111;SDS011;13092;51.996;4.458;2022-11-04T08:54:35;36.40;;;33.40;;
25111;SDS011;13092;51.996;4.458;2022-11-04T08:57:03;36.13;;;33.28;;
25111;SDS011;13092;51.996;4.458;2022-11-04T08:59:32;35.15;;;32.10;;
25111;SDS011;13092;51.996;4.458;2022-11-04T09:02:01;35.10;;;32.33;;
25111;SDS011;13092;51.996;4.458;2022-11-04T09:04:33;34.20;;;31.60;;
25111;SDS011;13092;51.996;4.458;2022-11-04T09:07:01;32.70;;;30.13;;
25111;SDS011;13092;51.996;4.458;2022-11-04T09:09:33;35.08;;;32.15;;
25111;SDS011;13092;51.996;4.458;2022-11-04T09:12:02;35.58;;;32.65;;
25111;SDS011;13092;51.996;4.458;2022-11-04T09:14:30;34.92;;;32.22;;
25111;SDS011;13092;51.996;4.458;2022-11-04T09:17:02;32.72;;;30.33;;
25111;SDS011;13092;51.996;4.458;2022-11-04T09:19:30;34.38;;;31.73;;
25111;SDS011;13092;51.996;4.458;2022-11-04T09:22:06;33.00;;;30.17;;
25111;SDS011;13092;51.996;4.458;2022-11-04T09:24:35;32.70;;;30.40;;
25111;SDS011;13092;51.996;4.458;2022-11-04T09:27:03;33.70;;;31.30;;
25111;SDS011;13092;51.996;4.458;2022-11-04T09:29:31;33.33;;;30.50;;
25111;SDS011;13092;51.996;4.458;2022-11-04T09:32:03;34.25;;;31.65;;
25111;SDS011;13092;51.996;4.458;2022-11-04T09:34:32;32.67;;;30.55;;
25111;SDS011;13092;51.996;4.458;2022-11-04T09:37:02;34.30;;;31.80;;
25111;SDS011;13092;51.996;4.458;2022-11-04T09:39:42;34.35;;;31.95;;
25111;SDS011;13092;51.996;4.458;2022-11-04T09:42:24;35.30;;;32.80;;
25111;SDS011;13092;51.996;4.458;2022-11-04T09:45:08;36.75;;;33.97;;
25111;SDS011;13092;51.996;4.458;2022-11-04T09:47:50;35.67;;;32.88;;
25111;SDS011;13092;51.996;4.458;2022-11-04T09:50:23;34.00;;;31.25;;
25111;SDS011;13092;51.996;4.458;2022-11-04T09:52:55;34.83;;;32.13;;
25111;SDS011;13092;51.996;4.458;2022-11-04T09:55:28;34.58;;;32.17;;
25111;SDS011;13092;51.996;4.458;2022-11-04T09:58:04;36.33;;;33.75;;
25111;SDS011;13092;51.996;4.458;2022-11-04T10:00:38;34.63;;;32.15;;
25111;SDS011;13092;51.996;4.458;2022-11-04T10:03:16;33.63;;;30.92;;
25111;SDS011;13092;51.996;4.458;2022-11-04T10:05:59;33.58;;;31.27;;
25111;SDS011;13092;51.996;4.458;2022-11-04T10:11:27;31.83;;;29.63;;
25111;SDS011;13092;51.996;4.458;2022-11-04T10:14:07;31.23;;;28.83;;
25111;SDS011;13092;51.996;4.458;2022-11-04T10:16:46;31.60;;;29.50;;
25111;SDS011;13092;51.996;4.458;2022-11-04T10:19:30;33.85;;;31.50;;
25111;SDS011;13092;51.996;4.458;2022-11-04T10:22:08;33.55;;;31.00;;
25111;SDS011;13092;51.996;4.458;2022-11-04T10:24:41;34.60;;;32.20;;
25111;SDS011;13092;51.996;4.458;2022-11-04T10:27:15;34.75;;;32.30;;
25111;SDS011;13092;51.996;4.458;2022-11-04T10:29:46;35.08;;;32.53;;
25111;SDS011;13092;51.996;4.458;2022-11-04T10:32:19;33.72;;;31.13;;
25111;SDS011;13092;51.996;4.458;2022-11-04T10:34:53;33.75;;;31.30;;
25111;SDS011;13092;51.996;4.458;2022-11-04T10:37:25;35.13;;;32.53;;
25111;SDS011;13092;51.996;4.458;2022-11-04T10:39:56;34.05;;;31.75;;
25111;SDS011;13092;51.996;4.458;2022-11-04T10:42:31;34.15;;;31.55;;
25111;SDS011;13092;51.996;4.458;2022-11-04T10:45:00;33.65;;;31.33;;
25111;SDS011;13092;51.996;4.458;2022-11-04T10:47:31;33.67;;;31.40;;
25111;SDS011;13092;51.996;4.458;2022-11-04T10:50:20;33.35;;;31.15;;
25111;SDS011;13092;51.996;4.458;2022-11-04T10:53:01;33.45;;;31.00;;
25111;SDS011;13092;51.996;4.458;2022-11-04T10:55:41;33.40;;;30.63;;
25111;SDS011;13092;51.996;4.458;2022-11-04T10:58:17;33.05;;;30.80;;
25111;SDS011;13092;51.996;4.458;2022-11-04T11:00:49;32.85;;;30.55;;
25111;SDS011;13092;51.996;4.458;2022-11-04T11:03:22;32.35;;;30.15;;
25111;SDS011;13092;51.996;4.458;2022-11-04T11:06:13;31.45;;;29.40;;
25111;SDS011;13092;51.996;4.458;2022-11-04T11:08:47;31.58;;;29.50;;
25111;SDS011;13092;51.996;4.458;2022-11-04T11:11:15;32.92;;;30.58;;
25111;SDS011;13092;51.996;4.458;2022-11-04T11:13:50;33.03;;;30.60;;
25111;SDS011;13092;51.996;4.458;2022-11-04T11:16:18;32.58;;;30.52;;
25111;SDS011;13092;51.996;4.458;2022-11-04T11:19:06;33.08;;;30.75;;
25111;SDS011;13092;51.996;4.458;2022-11-04T11:21:43;32.53;;;30.40;;
25111;SDS011;13092;51.996;4.458;2022-11-04T11:24:14;35.92;;;33.50;;
25111;SDS011;13092;51.996;4.458;2022-11-04T11:26:45;38.83;;;35.90;;
25111;SDS011;13092;51.996;4.458;2022-11-04T11:29:17;36.80;;;34.08;;
25111;SDS011;13092;51.996;4.458;2022-11-04T11:31:48;32.30;;;30.30;;
25111;SDS011;13092;51.996;4.458;2022-11-04T11:34:19;28.33;;;26.60;;
25111;SDS011;13092;51.996;4.458;2022-11-04T11:36:53;30.52;;;28.73;;
25111;SDS011;13092;51.996;4.458;2022-11-04T11:39:22;27.15;;;25.27;;
25111;SDS011;13092;51.996;4.458;2022-11-04T11:41:55;19.50;;;18.20;;
25111;SDS011;13092;51.996;4.458;2022-11-04T11:44:26;17.75;;;16.65;;
25111;SDS011;13092;51.996;4.458;2022-11-04T11:46:58;21.75;;;20.45;;
25111;SDS011;13092;51.996;4.458;2022-11-04T11:49:29;24.92;;;23.40;;
25111;SDS011;13092;51.996;4.458;2022-11-04T11:54:49;23.67;;;22.27;;
25111;SDS011;13092;51.996;4.458;2022-11-04T11:57:24;27.83;;;26.13;;
25111;SDS011;13092;51.996;4.458;2022-11-04T12:00:04;25.98;;;24.48;;
25111;SDS011;13092;51.996;4.458;2022-11-04T12:02:57;27.55;;;25.95;;
25111;SDS011;13092;51.996;4.458;2022-11-04T12:05:34;29.70;;;28.00;;
25111;SDS011;13092;51.996;4.458;2022-11-04T12:08:45;31.30;;;29.40;;
25111;SDS011;13092;51.996;4.458;2022-11-04T12:11:59;33.47;;;31.35;;
25111;SDS011;13092;51.996;4.458;2022-11-04T12:14:38;34.10;;;32.00;;
25111;SDS011;13092;51.996;4.458;2022-11-04T12:17:21;35.92;;;33.53;;
25111;SDS011;13092;51.996;4.458;2022-11-04T12:20:05;36.80;;;34.38;;
25111;SDS011;13092;51.996;4.458;2022-11-04T12:22:45;36.28;;;33.97;;
25111;SDS011;13092;51.996;4.458;2022-11-04T12:25:23;36.92;;;34.50;;
25111;SDS011;13092;51.996;4.458;2022-11-04T12:27:58;35.15;;;32.92;;
25111;SDS011;13092;51.996;4.458;2022-11-04T12:30:33;34.05;;;31.67;;
25111;SDS011;13092;51.996;4.458;2022-11-04T12:33:10;31.35;;;29.45;;
25111;SDS011;13092;51.996;4.458;2022-11-04T12:35:51;30.35;;;28.52;;
25111;SDS011;13092;51.996;4.458;2022-11-04T12:38:33;25.17;;;23.58;;
25111;SDS011;13092;51.996;4.458;2022-11-04T12:41:15;27.05;;;25.50;;
25111;SDS011;13092;51.996;4.458;2022-11-04T12:44:14;24.27;;;22.67;;
25111;SDS011;13092;51.996;4.458;2022-11-04T12:46:52;20.90;;;19.60;;
25111;SDS011;13092;51.996;4.458;2022-11-04T12:49:37;23.65;;;22.15;;
25111;SDS011;13092;51.996;4.458;2022-11-04T12:52:18;23.10;;;21.80;;
25111;SDS011;13092;51.996;4.458;2022-11-04T12:55:04;26.85;;;25.25;;
25111;SDS011;13092;51.996;4.458;2022-11-04T12:57:50;29.20;;;27.38;;
25111;SDS011;13092;51.996;4.458;2022-11-04T13:00:24;30.92;;;29.00;;
25111;SDS011;13092;51.996;4.458;2022-11-04T13:02:57;28.92;;;27.23;;
25111;SDS011;13092;51.996;4.458;2022-11-04T13:05:34;29.95;;;28.15;;
25111;SDS011;13092;51.996;4.458;2022-11-04T13:08:10;28.67;;;26.98;;
25111;SDS011;13092;51.996;4.458;2022-11-04T13:10:47;28.13;;;26.35;;
25111;SDS011;13092;51.996;4.458;2022-11-04T13:13:22;30.65;;;28.75;;
25111;SDS011;13092;51.996;4.458;2022-11-04T13:15:54;31.70;;;29.77;;
25111;SDS011;13092;51.996;4.458;2022-11-04T13:18:25;33.95;;;31.85;;
25111;SDS011;13092;51.996;4.458;2022-11-04T13:20:59;36.75;;;34.53;;
25111;SDS011;13092;51.996;4.458;2022-11-04T13:23:33;37.13;;;34.83;;
25111;SDS011;13092;51.996;4.458;2022-11-04T13:26:08;37.45;;;35.15;;
25111;SDS011;13092;51.996;4.458;2022-11-04T13:28:42;38.28;;;35.75;;
25111;SDS011;13092;51.996;4.458;2022-11-04T13:31:15;39.05;;;36.55;;
25111;SDS011;13092;51.996;4.458;2022-11-04T13:33:52;38.58;;;36.20;;
25111;SDS011;13092;51.996;4.458;2022-11-04T13:36:27;38.20;;;35.70;;
25111;SDS011;13092;51.996;4.458;2022-11-04T13:39:06;37.67;;;35.38;;
25111;SDS011;13092;51.996;4.458;2022-11-04T13:41:43;36.90;;;34.50;;
25111;SDS011;13092;51.996;4.458;2022-11-04T13:44:35;37.40;;;34.92;;
25111;SDS011;13092;51.996;4.458;2022-11-04T13:47:10;36.55;;;34.15;;
25111;SDS011;13092;51.996;4.458;2022-11-04T13:49:48;37.78;;;35.25;;
25111;SDS011;13092;51.996;4.458;2022-11-04T13:52:17;36.03;;;33.63;;
25111;SDS011;13092;51.996;4.458;2022-11-04T13:54:51;37.05;;;34.63;;
25111;SDS011;13092;51.996;4.458;2022-11-04T13:57:23;38.15;;;35.47;;
25111;SDS011;13092;51.996;4.458;2022-11-04T14:02:55;39.08;;;36.20;;
25111;SDS011;13092;51.996;4.458;2022-11-04T14:08:32;37.92;;;35.33;;
25111;SDS011;13092;51.996;4.458;2022-11-04T14:11:05;36.13;;;33.72;;
25111;SDS011;13092;51.996;4.458;2022-11-04T14:22:30;36.85;;;34.38;;
25111;SDS011;13092;51.996;4.458;2022-11-04T14:25:19;36.33;;;33.47;;
25111;SDS011;13092;51.996;4.458;2022-11-04T14:27:52;37.38;;;34.63;;
25111;SDS011;13092;51.996;4.458;2022-11-04T14:30:42;36.72;;;34.10;;
25111;SDS011;13092;51.996;4.458;2022-11-04T14:36:54;36.05;;;33.65;;
25111;SDS011;13092;51.996;4.458;2022-11-04T14:39:27;35.55;;;33.25;;
25111;SDS011;13092;51.996;4.458;2022-11-04T14:42:02;34.65;;;32.45;;
25111;SDS011;13092;51.996;4.458;2022-11-04T14:44:34;35.65;;;33.35;;
25111;SDS011;13092;51.996;4.458;2022-11-04T14:47:16;36.47;;;33.97;;
25111;SDS011;13092;51.996;4.458;2022-11-04T14:49:59;35.22;;;32.83;;
25111;SDS011;13092;51.996;4.458;2022-11-04T14:56:12;36.40;;;33.67;;
25111;SDS011;13092;51.996;4.458;2022-11-04T14:58:56;36.30;;;33.90;;
25111;SDS011;13092;51.996;4.458;2022-11-04T15:01:28;37.25;;;34.42;;
25111;SDS011;13092;51.996;4.458;2022-11-04T15:07:30;35.65;;;33.15;;
25111;SDS011;13092;51.996;4.458;2022-11-04T15:10:18;36.70;;;33.97;;
25111;SDS011;13092;51.996;4.458;2022-11-04T15:12:48;34.97;;;32.55;;
25111;SDS011;13092;51.996;4.458;2022-11-04T15:15:33;34.42;;;32.03;;
25111;SDS011;13092;51.996;4.458;2022-11-04T15:18:06;35.70;;;33.05;;
25111;SDS011;13092;51.996;4.458;2022-11-04T15:20:38;34.97;;;32.50;;
25111;SDS011;13092;51.996;4.458;2022-11-04T15:23:13;35.05;;;32.58;;
25111;SDS011;13092;51.996;4.458;2022-11-04T15:25:44;34.75;;;32.20;;
25111;SDS011;13092;51.996;4.458;2022-11-04T15:30:55;33.92;;;31.52;;
25111;SDS011;13092;51.996;4.458;2022-11-04T15:33:25;34.67;;;32.10;;
25111;SDS011;13092;51.996;4.458;2022-11-04T15:35:53;34.63;;;32.13;;